createdAt,value
2019-03-03T00:00:44.196Z,9.90
2019-03-03T00:03:13.000Z,9.78
2019-03-03T00:05:41.596Z,9.48
2019-03-03T00:08:10.149Z,8.50
2019-03-03T00:10:38.736Z,9.70
2019-03-03T00:13:07.879Z,9.60
2019-03-03T00:15:36.475Z,7.95
2019-03-03T00:18:05.060Z,8.18
2019-03-03T00:20:33.690Z,8.23
2019-03-03T00:23:02.312Z,8.58
2019-03-03T00:25:30.939Z,8.25
2019-03-03T00:27:59.679Z,9.18
2019-03-03T00:30:28.290Z,6.95
2019-03-03T00:32:57.001Z,7.90
2019-03-03T00:35:25.639Z,8.48
2019-03-03T00:38:02.000Z,7.62
2019-03-03T00:40:32.172Z,7.22
2019-03-03T00:43:05.640Z,6.80
2019-03-03T00:45:38.616Z,8.33
2019-03-03T00:48:11.828Z,7.40
2019-03-03T00:50:58.178Z,7.53
2019-03-03T00:53:28.436Z,6.08
2019-03-03T00:56:01.651Z,6.72
2019-03-03T00:58:34.270Z,7.33
2019-03-03T01:01:07.454Z,6.50
2019-03-03T01:03:55.578Z,6.47
2019-03-03T01:06:41.010Z,5.05
2019-03-03T01:09:20.199Z,5.27
2019-03-03T01:11:59.689Z,6.60
2019-03-03T01:14:32.917Z,5.80
2019-03-03T01:17:09.142Z,6.23
2019-03-03T01:19:39.402Z,5.85
2019-03-03T01:22:15.647Z,6.30
2019-03-03T01:24:45.904Z,5.97
2019-03-03T01:27:14.871Z,5.92
2019-03-03T01:29:43.499Z,6.30
2019-03-03T01:32:12.226Z,5.92
2019-03-03T01:34:40.843Z,5.50
2019-03-03T01:37:09.443Z,5.37
2019-03-03T01:39:38.067Z,5.00
2019-03-03T01:42:06.615Z,5.45
2019-03-03T01:44:35.172Z,5.87
2019-03-03T01:47:03.972Z,5.73
2019-03-03T01:49:32.533Z,5.53
2019-03-03T01:52:01.117Z,4.78
2019-03-03T01:54:29.586Z,4.42
2019-03-03T01:56:58.111Z,4.47
2019-03-03T01:59:26.745Z,5.10
2019-03-03T02:01:55.443Z,5.05
2019-03-03T02:04:24.033Z,5.70
2019-03-03T02:06:52.606Z,4.07
2019-03-03T02:09:21.334Z,4.60
2019-03-03T02:11:50.028Z,5.42
2019-03-03T02:14:18.687Z,4.85
2019-03-03T02:16:47.252Z,4.70
2019-03-03T02:19:15.824Z,4.83
2019-03-03T02:21:44.401Z,5.47
2019-03-03T02:24:12.993Z,4.67
2019-03-03T02:26:41.600Z,4.85
2019-03-03T02:29:10.190Z,4.90
2019-03-03T02:31:38.829Z,4.70
2019-03-03T02:34:07.420Z,4.55
2019-03-03T02:36:35.882Z,4.65
2019-03-03T02:39:07.493Z,4.87
2019-03-03T02:41:36.093Z,5.03
2019-03-03T02:44:04.775Z,5.00
2019-03-03T02:46:33.304Z,5.10
2019-03-03T02:49:01.865Z,4.85
2019-03-03T02:51:30.398Z,5.63
2019-03-03T02:53:59.087Z,4.92
2019-03-03T02:56:27.675Z,4.80
2019-03-03T02:58:56.239Z,4.83
2019-03-03T03:01:29.463Z,5.17
2019-03-03T03:03:58.023Z,4.83
2019-03-03T03:06:30.853Z,4.83
2019-03-03T03:09:10.078Z,4.60
2019-03-03T03:11:40.563Z,4.67
2019-03-03T03:14:25.801Z,5.03
2019-03-03T03:17:08.087Z,4.97
2019-03-03T03:19:54.697Z,4.77
2019-03-03T03:22:43.345Z,5.03
2019-03-03T03:25:16.394Z,5.03
2019-03-03T03:27:58.382Z,5.22
2019-03-03T03:30:44.814Z,5.25
2019-03-03T03:33:23.825Z,5.42
2019-03-03T03:35:54.116Z,4.87
2019-03-03T03:38:27.114Z,5.10
2019-03-03T03:41:15.458Z,5.37
2019-03-03T03:43:45.692Z,5.72
2019-03-03T03:46:32.103Z,5.08
2019-03-03T03:49:11.268Z,4.83
2019-03-03T03:51:44.087Z,5.10
2019-03-03T03:54:30.622Z,5.45
2019-03-03T03:57:00.862Z,5.28
2019-03-03T03:59:33.904Z,4.62
2019-03-03T04:02:13.054Z,5.37
2019-03-03T04:04:46.217Z,5.55
2019-03-03T04:07:22.335Z,6.00
2019-03-03T04:10:01.653Z,5.58
2019-03-03T04:12:31.978Z,5.85
2019-03-03T04:15:02.191Z,5.60
2019-03-03T04:17:34.967Z,5.00
2019-03-03T04:20:22.286Z,6.12
2019-03-03T04:23:08.848Z,5.87
2019-03-03T04:25:55.239Z,5.00
2019-03-03T04:28:25.403Z,5.35
2019-03-03T04:30:58.364Z,5.12
2019-03-03T04:33:44.591Z,5.90
2019-03-03T04:36:23.594Z,5.42
2019-03-03T04:38:59.587Z,6.20
2019-03-03T04:41:32.581Z,4.97
2019-03-03T04:44:05.522Z,6.10
2019-03-03T04:46:44.534Z,5.97
2019-03-03T04:49:14.688Z,5.50
2019-03-03T04:51:57.040Z,5.67
2019-03-03T04:54:33.079Z,6.05
2019-03-03T04:57:09.032Z,6.40
2019-03-03T04:59:42.028Z,7.72
2019-03-03T05:02:20.867Z,6.10
2019-03-03T05:04:53.946Z,6.50
2019-03-03T05:07:32.701Z,6.50
2019-03-03T05:10:02.940Z,5.85
2019-03-03T05:12:49.362Z,6.75
2019-03-03T05:15:25.342Z,6.12
2019-03-03T05:18:04.610Z,6.33
2019-03-03T05:20:40.719Z,7.15
2019-03-03T05:23:09.436Z,6.30
2019-03-03T05:25:38.117Z,6.15
2019-03-03T05:28:06.708Z,6.97
2019-03-03T05:30:35.390Z,7.62
2019-03-03T05:33:04.013Z,7.47
2019-03-03T05:35:32.608Z,6.15
2019-03-03T05:38:01.204Z,7.10
2019-03-03T05:40:29.744Z,7.08
2019-03-03T05:42:58.399Z,6.70
2019-03-03T05:45:27.055Z,6.67
2019-03-03T05:47:55.506Z,7.08
2019-03-03T05:50:24.026Z,6.75
2019-03-03T05:52:52.628Z,7.33
2019-03-03T05:55:21.154Z,6.90
2019-03-03T05:57:49.749Z,7.20
2019-03-03T06:00:18.342Z,8.20
2019-03-03T06:02:46.935Z,7.40
2019-03-03T06:05:15.482Z,8.30
2019-03-03T06:07:44.121Z,6.95
2019-03-03T06:10:13.085Z,7.28
2019-03-03T06:12:41.607Z,7.10
2019-03-03T06:15:13.069Z,6.95
2019-03-03T06:17:41.671Z,6.20
2019-03-03T06:20:12.190Z,7.30
2019-03-03T06:22:40.779Z,7.65
2019-03-03T06:25:10.688Z,6.15
2019-03-03T06:27:39.275Z,7.17
2019-03-03T06:30:11.076Z,7.20
2019-03-03T06:32:39.590Z,6.33
2019-03-03T06:35:09.896Z,6.20
2019-03-03T06:37:38.489Z,7.40
2019-03-03T06:40:09.382Z,7.80
2019-03-03T06:42:37.916Z,6.80
2019-03-03T06:45:12.597Z,7.67
2019-03-03T06:47:41.191Z,7.60
2019-03-03T06:50:11.793Z,7.72
2019-03-03T06:52:40.464Z,6.60
2019-03-03T06:55:09.385Z,6.72
2019-03-03T06:57:38.150Z,7.63
2019-03-03T07:00:12.971Z,7.28
2019-03-03T07:02:41.567Z,7.83
2019-03-03T07:05:11.390Z,7.05
2019-03-03T07:07:40.085Z,7.95
2019-03-03T07:10:13.768Z,6.67
2019-03-03T07:12:42.402Z,7.30
2019-03-03T07:15:16.158Z,7.53
2019-03-03T07:17:44.761Z,7.73
2019-03-03T07:20:15.186Z,8.08
2019-03-03T07:22:43.777Z,7.28
2019-03-03T07:25:13.775Z,7.55
2019-03-03T07:27:42.366Z,8.05
2019-03-03T07:30:15.524Z,7.80
2019-03-03T07:32:54.495Z,8.05
2019-03-03T07:35:23.014Z,7.50
2019-03-03T07:37:51.608Z,8.33
2019-03-03T07:40:20.215Z,7.40
2019-03-03T07:42:48.740Z,8.00
2019-03-03T07:45:17.259Z,7.63
2019-03-03T07:47:45.710Z,8.85
2019-03-03T07:50:14.362Z,8.03
2019-03-03T07:52:43.054Z,7.78
2019-03-03T07:55:11.648Z,8.20
2019-03-03T07:57:40.234Z,8.23
2019-03-03T08:00:13.596Z,8.77
2019-03-03T08:02:42.186Z,7.80
2019-03-03T08:05:11.516Z,8.00
2019-03-03T08:07:40.377Z,7.62
2019-03-03T08:10:11.428Z,7.45
2019-03-03T08:12:40.023Z,8.60
2019-03-03T08:15:11.291Z,8.58
2019-03-03T08:17:39.840Z,8.60
2019-03-03T08:20:11.046Z,9.68
2019-03-03T08:22:39.665Z,8.60
2019-03-03T08:25:09.877Z,8.78
2019-03-03T08:27:38.565Z,8.50
2019-03-03T08:30:20.005Z,8.93
2019-03-03T08:32:48.532Z,7.85
2019-03-03T08:35:25.429Z,8.03
2019-03-03T08:37:54.023Z,9.40
2019-03-03T08:40:22.636Z,7.05
2019-03-03T08:42:52.866Z,8.10
2019-03-03T08:45:28.831Z,8.60
2019-03-03T08:47:59.055Z,7.35
2019-03-03T08:50:29.335Z,6.55
2019-03-03T08:53:02.223Z,8.20
2019-03-03T08:55:32.363Z,6.73
2019-03-03T08:58:02.590Z,7.60
2019-03-03T09:00:35.545Z,8.70
2019-03-03T09:03:21.062Z,6.90
2019-03-03T09:05:51.246Z,8.25
2019-03-03T09:08:24.264Z,7.35
2019-03-03T09:10:57.087Z,7.65
2019-03-03T09:13:27.172Z,6.73
2019-03-03T09:16:03.489Z,7.53
2019-03-03T09:18:39.697Z,7.72
2019-03-03T09:21:12.883Z,6.83
2019-03-03T09:23:59.241Z,6.85
2019-03-03T09:26:31.986Z,7.00
2019-03-03T09:29:02.153Z,6.55
2019-03-03T09:31:38.025Z,7.60
2019-03-03T09:34:13.674Z,7.75
2019-03-03T09:36:43.904Z,6.28
2019-03-03T09:39:14.232Z,7.87
2019-03-03T09:41:47.720Z,6.25
2019-03-03T09:44:34.392Z,7.70
2019-03-03T09:47:20.731Z,6.90
2019-03-03T09:49:57.179Z,6.58
2019-03-03T09:52:42.805Z,6.67
2019-03-03T09:55:29.423Z,6.70
2019-03-03T09:58:02.875Z,7.28
2019-03-03T10:00:33.106Z,7.25
2019-03-03T10:03:19.639Z,6.67
2019-03-03T10:06:04.999Z,7.03
2019-03-03T10:08:35.232Z,6.15
2019-03-03T10:11:21.354Z,7.50
2019-03-03T10:13:51.508Z,5.60
2019-03-03T10:16:21.679Z,6.42
2019-03-03T10:18:54.477Z,6.28
2019-03-03T10:21:24.710Z,6.05
2019-03-03T10:24:03.578Z,7.78
2019-03-03T10:26:51.911Z,6.67
2019-03-03T10:29:22.075Z,6.93
2019-03-03T10:32:04.624Z,6.20
2019-03-03T10:34:49.775Z,6.65
2019-03-03T10:37:19.970Z,7.40
2019-03-03T10:40:08.148Z,7.17
2019-03-03T10:42:40.889Z,7.97
2019-03-03T10:45:14.595Z,8.10
2019-03-03T10:47:47.223Z,7.70
2019-03-03T10:50:20.498Z,7.90
2019-03-03T10:52:56.821Z,8.53
2019-03-03T10:55:33.135Z,7.58
2019-03-03T10:58:12.302Z,8.85
2019-03-03T11:00:59.527Z,8.67
2019-03-03T11:03:35.867Z,7.93
2019-03-03T11:06:08.967Z,8.70
2019-03-03T11:08:51.386Z,7.73
2019-03-03T11:11:24.537Z,9.53
2019-03-03T11:13:58.128Z,10.88
2019-03-03T11:16:28.375Z,10.08
2019-03-03T11:18:58.577Z,11.25
2019-03-03T11:21:34.753Z,11.13
2019-03-03T11:24:07.855Z,11.10
2019-03-03T11:26:53.187Z,11.40
2019-03-03T11:29:26.131Z,12.30
2019-03-03T11:31:59.294Z,15.23
2019-03-03T11:34:35.446Z,13.25
2019-03-03T11:37:14.041Z,13.20
2019-03-03T11:39:43.989Z,13.95
2019-03-03T11:42:14.238Z,13.68
2019-03-03T11:44:47.450Z,10.98
2019-03-03T11:47:21.044Z,11.23
2019-03-03T11:50:00.314Z,11.20
2019-03-03T11:52:33.643Z,9.55
2019-03-03T11:55:06.746Z,9.93
2019-03-03T11:57:48.905Z,10.50
2019-03-03T12:00:35.399Z,9.90
2019-03-03T12:03:12.569Z,10.85
2019-03-03T12:05:48.952Z,9.28
2019-03-03T12:08:36.428Z,8.10
2019-03-03T12:11:18.901Z,8.90
2019-03-03T12:13:49.068Z,8.45
2019-03-03T12:16:19.318Z,7.58
2019-03-03T12:19:05.903Z,6.78
2019-03-03T12:21:41.772Z,5.62
2019-03-03T12:24:21.047Z,5.95
2019-03-03T12:26:53.765Z,7.15
2019-03-03T12:29:35.855Z,5.78
2019-03-03T12:32:09.066Z,6.30
2019-03-03T12:34:48.387Z,6.75
2019-03-03T12:37:19.884Z,6.28
2019-03-03T12:39:52.695Z,6.08
2019-03-03T12:42:28.677Z,7.00
2019-03-03T12:45:04.457Z,7.05
2019-03-03T12:47:34.550Z,7.17
2019-03-03T12:50:14.023Z,7.10
2019-03-03T12:52:49.921Z,6.92
2019-03-03T12:55:20.087Z,6.90
2019-03-03T12:57:53.025Z,6.95
2019-03-03T13:00:23.112Z,5.78
2019-03-03T13:03:09.411Z,7.47
2019-03-03T13:05:45.630Z,6.87
2019-03-03T13:08:15.895Z,5.45
2019-03-03T13:10:46.166Z,6.97
2019-03-03T13:13:19.425Z,6.92
2019-03-03T13:16:04.804Z,6.90
2019-03-03T13:18:53.525Z,7.00
2019-03-03T13:21:35.688Z,8.90
2019-03-03T13:24:06.274Z,8.90
2019-03-03T13:26:39.415Z,9.50
2019-03-03T13:29:09.790Z,9.10
2019-03-03T13:31:39.960Z,7.20
2019-03-03T13:34:22.290Z,7.30
2019-03-03T13:36:55.177Z,7.05
2019-03-03T13:39:25.483Z,6.70
2019-03-03T13:41:58.825Z,6.35
2019-03-03T13:44:27.421Z,6.73
2019-03-03T13:46:56.124Z,5.20
2019-03-03T13:49:24.737Z,5.33
2019-03-03T13:51:53.265Z,7.08
2019-03-03T13:54:21.905Z,7.70
2019-03-03T13:56:50.428Z,6.45
2019-03-03T13:59:18.961Z,6.85
2019-03-03T14:01:47.594Z,6.50
2019-03-03T14:04:16.202Z,6.35
2019-03-03T14:06:44.762Z,6.10
2019-03-03T14:09:13.566Z,6.62
2019-03-03T14:11:42.167Z,6.60
2019-03-03T14:14:10.697Z,6.77
2019-03-03T14:16:39.466Z,7.20
2019-03-03T14:19:08.588Z,6.53
2019-03-03T14:21:37.118Z,6.67
2019-03-03T14:24:06.108Z,6.83
2019-03-03T14:26:34.704Z,7.03
2019-03-03T14:29:03.563Z,6.58
2019-03-03T14:31:32.191Z,6.85
2019-03-03T14:34:00.832Z,7.50
2019-03-03T14:36:29.733Z,7.12
2019-03-03T14:38:58.373Z,6.78
2019-03-03T14:41:26.990Z,6.83
2019-03-03T14:43:55.741Z,7.15
2019-03-03T14:46:24.348Z,7.25
2019-03-03T14:48:52.807Z,6.37
2019-03-03T14:51:21.544Z,7.90
2019-03-03T14:53:50.156Z,8.03
2019-03-03T14:56:18.668Z,9.05
2019-03-03T14:58:47.215Z,7.30
2019-03-03T15:01:15.818Z,7.83
2019-03-03T15:03:44.544Z,7.22
2019-03-03T15:06:13.174Z,8.10
2019-03-03T15:08:41.769Z,8.17
2019-03-03T15:11:10.468Z,8.98
2019-03-03T15:13:38.998Z,7.37
2019-03-03T15:16:07.627Z,7.97
2019-03-03T15:18:36.318Z,8.40
2019-03-03T15:21:05.037Z,7.92
2019-03-03T15:23:33.635Z,7.30
2019-03-03T15:26:02.373Z,8.05
2019-03-03T15:28:31.167Z,8.85
2019-03-03T15:31:00.031Z,8.78
2019-03-03T15:33:28.648Z,7.40
2019-03-03T15:35:57.283Z,8.00
2019-03-03T15:38:25.981Z,8.00
2019-03-03T15:40:54.711Z,8.08
2019-03-03T15:43:23.416Z,8.05
2019-03-03T15:45:52.017Z,7.62
2019-03-03T15:48:20.620Z,7.65
2019-03-03T15:50:49.419Z,7.80
2019-03-03T15:53:18.409Z,7.78
2019-03-03T15:55:47.090Z,8.10
2019-03-03T15:58:15.619Z,7.12
2019-03-03T16:00:44.259Z,8.33
2019-03-03T16:03:12.950Z,7.33
2019-03-03T16:05:41.581Z,8.05
2019-03-03T16:08:10.108Z,6.92
2019-03-03T16:10:38.803Z,7.80
2019-03-03T16:13:07.634Z,7.42
2019-03-03T16:15:36.282Z,6.87
2019-03-03T16:18:05.243Z,7.22
2019-03-03T16:20:33.840Z,7.20
2019-03-03T16:23:12.911Z,6.15
2019-03-03T16:25:41.742Z,7.13
2019-03-03T16:28:10.752Z,7.20
2019-03-03T16:30:39.494Z,6.93
2019-03-03T16:33:08.088Z,7.50
2019-03-03T16:35:37.081Z,7.17
2019-03-03T16:38:05.696Z,7.17
2019-03-03T16:40:39.659Z,7.28
2019-03-03T16:43:04.798Z,8.05
2019-03-03T16:45:33.626Z,7.90
2019-03-03T16:48:02.180Z,7.22
2019-03-03T16:50:30.737Z,7.17
2019-03-03T16:52:59.336Z,6.67
2019-03-03T16:55:27.931Z,6.92
2019-03-03T16:57:56.642Z,8.30
2019-03-03T17:00:26.256Z,7.08
2019-03-03T17:02:54.979Z,7.20
2019-03-03T17:05:27.594Z,6.58
2019-03-03T17:07:56.394Z,6.85
2019-03-03T17:10:24.994Z,6.75
2019-03-03T17:12:53.598Z,6.62
2019-03-03T17:15:24.239Z,5.83
2019-03-03T17:17:52.877Z,6.03
2019-03-03T17:20:21.534Z,7.17
2019-03-03T17:22:50.157Z,6.70
2019-03-03T17:25:23.735Z,7.05
2019-03-03T17:27:52.275Z,5.47
2019-03-03T17:30:23.467Z,6.40
2019-03-03T17:32:52.158Z,6.00
2019-03-03T17:35:20.982Z,7.08
2019-03-03T17:37:50.012Z,6.30
2019-03-03T17:40:25.795Z,6.30
2019-03-03T17:42:54.449Z,6.53
2019-03-03T17:45:23.857Z,7.28
2019-03-03T17:47:52.689Z,7.00
2019-03-03T17:50:29.171Z,6.40
2019-03-03T17:52:57.764Z,6.50
2019-03-03T17:55:26.502Z,6.65
2019-03-03T17:57:55.247Z,6.62
2019-03-03T18:00:26.796Z,6.17
2019-03-03T18:02:55.773Z,5.90
2019-03-03T18:05:24.367Z,7.25
2019-03-03T18:07:53.110Z,5.80
2019-03-03T18:10:21.884Z,5.70
2019-03-03T18:12:50.613Z,5.70
2019-03-03T18:15:19.220Z,6.67
2019-03-03T18:17:50.287Z,6.83
2019-03-03T18:20:19.773Z,6.37
2019-03-03T18:22:48.696Z,6.20
2019-03-03T18:25:18.686Z,6.53
2019-03-03T18:27:47.335Z,6.45
2019-03-03T18:30:29.301Z,5.95
2019-03-03T18:32:57.963Z,6.97
2019-03-03T18:35:26.483Z,6.72
2019-03-03T18:37:55.080Z,5.92
2019-03-03T18:40:24.721Z,6.17
2019-03-03T18:42:53.595Z,5.80
2019-03-03T18:45:23.307Z,5.83
2019-03-03T18:47:52.099Z,5.85
2019-03-03T18:50:28.716Z,7.22
2019-03-03T18:52:59.670Z,6.85
2019-03-03T18:55:27.717Z,6.72
2019-03-03T18:57:56.349Z,5.87
2019-03-03T19:00:32.034Z,7.00
2019-03-03T19:03:01.074Z,6.62
2019-03-03T19:05:29.690Z,5.85
2019-03-03T19:07:58.425Z,5.85
2019-03-03T19:10:40.754Z,6.75
2019-03-03T19:13:09.641Z,6.47
2019-03-03T19:15:38.321Z,5.95
2019-03-03T19:18:07.073Z,6.20
2019-03-03T19:20:36.405Z,6.10
2019-03-03T19:23:05.107Z,5.80
2019-03-03T19:25:33.645Z,5.87
2019-03-03T19:28:02.304Z,6.15
2019-03-03T19:30:31.048Z,5.80
2019-03-03T19:33:05.568Z,5.65
2019-03-03T19:38:02.029Z,6.03
2019-03-03T19:40:30.641Z,6.15
2019-03-03T19:42:59.316Z,6.00
2019-03-03T19:45:36.383Z,7.00
2019-03-03T19:48:06.403Z,6.60
2019-03-03T19:50:35.209Z,5.87
2019-03-03T19:53:04.332Z,6.20
2019-03-03T19:55:32.985Z,6.40
2019-03-03T19:58:01.680Z,5.93
2019-03-03T20:00:38.739Z,6.00
2019-03-03T20:03:06.173Z,6.75
2019-03-03T20:05:34.776Z,5.90
2019-03-03T20:08:03.745Z,6.03
2019-03-03T20:10:32.647Z,6.05
2019-03-03T20:13:01.314Z,5.53
2019-03-03T20:15:30.044Z,5.58
2019-03-03T20:17:58.712Z,6.25
2019-03-03T20:20:27.798Z,6.62
2019-03-03T20:22:56.810Z,5.50
2019-03-03T20:25:25.742Z,5.65
2019-03-03T20:27:54.393Z,6.03
2019-03-03T20:30:24.314Z,6.12
2019-03-03T20:32:52.919Z,5.97
2019-03-03T20:35:21.656Z,5.95
2019-03-03T20:37:50.257Z,6.50
2019-03-03T20:40:20.694Z,5.90
2019-03-03T20:42:49.439Z,6.00
2019-03-03T20:45:21.418Z,6.33
2019-03-03T20:47:50.020Z,5.70
2019-03-03T20:50:20.392Z,5.12
2019-03-03T20:52:49.799Z,5.75
2019-03-03T20:55:20.511Z,6.40
2019-03-03T20:57:49.214Z,6.25
2019-03-03T21:00:20.327Z,5.87
2019-03-03T21:02:49.046Z,5.60
2019-03-03T21:05:17.919Z,5.67
2019-03-03T21:07:51.267Z,6.03
2019-03-03T21:10:24.202Z,6.00
2019-03-03T21:12:52.869Z,6.27
2019-03-03T21:15:22.077Z,5.87
2019-03-03T21:17:50.686Z,6.37
2019-03-03T21:20:20.709Z,5.78
2019-03-03T21:22:49.543Z,5.80
2019-03-03T21:25:19.810Z,5.85
2019-03-03T21:27:48.512Z,5.85
2019-03-03T21:30:25.079Z,5.90
2019-03-03T21:32:53.974Z,5.35
2019-03-03T21:35:23.268Z,5.53
2019-03-03T21:37:52.283Z,5.90
2019-03-03T21:40:21.940Z,5.57
2019-03-03T21:42:50.640Z,5.33
2019-03-03T21:45:21.622Z,5.40
2019-03-03T21:47:50.407Z,5.37
2019-03-03T21:50:20.804Z,5.50
2019-03-03T21:52:49.420Z,5.60
2019-03-03T21:55:18.012Z,5.20
2019-03-03T21:57:46.611Z,5.47
2019-03-03T22:00:18.263Z,5.53
2019-03-03T22:02:47.012Z,5.23
2019-03-03T22:05:15.631Z,5.40
2019-03-03T22:07:44.256Z,5.50
2019-03-03T22:10:12.976Z,5.30
2019-03-03T22:12:41.567Z,4.35
2019-03-03T22:15:12.497Z,5.30
2019-03-03T22:17:41.438Z,5.20
2019-03-03T22:20:11.060Z,5.45
2019-03-03T22:22:39.658Z,5.53
2019-03-03T22:25:10.486Z,5.25
2019-03-03T22:27:39.098Z,5.97
2019-03-03T22:30:10.771Z,5.60
2019-03-03T22:32:39.370Z,4.90
2019-03-03T22:35:08.795Z,5.37
2019-03-03T22:37:37.318Z,4.95
2019-03-03T22:40:22.906Z,4.85
2019-03-03T22:42:51.611Z,5.13
2019-03-03T22:45:20.209Z,5.83
2019-03-03T22:47:48.845Z,5.30
2019-03-03T22:50:18.671Z,5.15
2019-03-03T22:52:47.257Z,4.90
2019-03-03T22:55:20.193Z,4.55
2019-03-03T22:57:48.987Z,4.90
2019-03-03T23:00:46.238Z,5.50
2019-03-03T23:03:32.745Z,4.95
2019-03-03T23:06:09.829Z,5.10
2019-03-03T23:08:50.143Z,4.72
2019-03-03T23:11:33.455Z,5.87
2019-03-03T23:14:13.923Z,5.15
2019-03-03T23:17:09.659Z,4.90
2019-03-03T23:20:02.065Z,4.58
2019-03-03T23:22:46.816Z,5.05
2019-03-03T23:25:27.149Z,4.67
2019-03-03T23:27:55.619Z,4.58
2019-03-03T23:30:24.218Z,4.12
2019-03-03T23:32:53.207Z,4.33
2019-03-03T23:35:21.884Z,4.42
2019-03-03T23:37:50.479Z,4.50
2019-03-03T23:40:19.488Z,3.80
2019-03-03T23:42:48.083Z,4.23
2019-03-03T23:45:16.625Z,4.30
2019-03-03T23:47:45.150Z,4.53
2019-03-03T23:50:13.849Z,4.20
2019-03-03T23:52:42.536Z,5.55
2019-03-03T23:55:12.763Z,4.85
2019-03-03T23:57:41.215Z,4.30
